sensor_id;sensor_type;location;lat;lon;timestamp;P1;durP1;ratioP1;P2;durP2;ratioP2
16153;SDS011;8182;55.648;13.208;2023-08-08T00:02:24;9.77;;;1.97;;
16153;SDS011;8182;55.648;13.208;2023-08-08T00:04:52;10.90;;;2.27;;
16153;SDS011;8182;55.648;13.208;2023-08-08T00:07:19;7.57;;;2.00;;
16153;SDS011;8182;55.648;13.208;2023-08-08T00:09:46;8.63;;;1.90;;
16153;SDS011;8182;55.648;13.208;2023-08-08T00:12:13;8.70;;;2.10;;
16153;SDS011;8182;55.648;13.208;2023-08-08T00:14:40;6.77;;;1.97;;
16153;SDS011;8182;55.648;13.208;2023-08-08T00:17:06;10.50;;;2.03;;
16153;SDS011;8182;55.648;13.208;2023-08-08T00:19:33;7.20;;;1.73;;
16153;SDS011;8182;55.648;13.208;2023-08-08T00:22:02;7.07;;;1.87;;
16153;SDS011;8182;55.648;13.208;2023-08-08T00:24:29;6.43;;;2.07;;
16153;SDS011;8182;55.648;13.208;2023-08-08T00:26:56;8.73;;;2.00;;
16153;SDS011;8182;55.648;13.208;2023-08-08T00:29:23;12.63;;;2.20;;
16153;SDS011;8182;55.648;13.208;2023-08-08T00:31:50;8.80;;;1.87;;
16153;SDS011;8182;55.648;13.208;2023-08-08T00:34:17;6.93;;;2.00;;
16153;SDS011;8182;55.648;13.208;2023-08-08T00:36:44;10.10;;;2.10;;
16153;SDS011;8182;55.648;13.208;2023-08-08T00:39:12;10.60;;;2.13;;
16153;SDS011;8182;55.648;13.208;2023-08-08T00:41:39;10.73;;;2.00;;
16153;SDS011;8182;55.648;13.208;2023-08-08T00:44:09;7.47;;;2.23;;
16153;SDS011;8182;55.648;13.208;2023-08-08T00:46:39;10.53;;;2.30;;
16153;SDS011;8182;55.648;13.208;2023-08-08T00:49:06;10.87;;;2.00;;
16153;SDS011;8182;55.648;13.208;2023-08-08T00:51:32;8.63;;;1.80;;
16153;SDS011;8182;55.648;13.208;2023-08-08T00:54:00;10.70;;;2.17;;
16153;SDS011;8182;55.648;13.208;2023-08-08T00:56:29;7.73;;;2.07;;
16153;SDS011;8182;55.648;13.208;2023-08-08T00:59:00;7.90;;;1.80;;
16153;SDS011;8182;55.648;13.208;2023-08-08T01:01:31;9.20;;;2.00;;
16153;SDS011;8182;55.648;13.208;2023-08-08T01:03:58;10.33;;;1.97;;
16153;SDS011;8182;55.648;13.208;2023-08-08T01:06:27;9.20;;;2.00;;
16153;SDS011;8182;55.648;13.208;2023-08-08T01:09:00;8.83;;;1.93;;
16153;SDS011;8182;55.648;13.208;2023-08-08T01:11:32;5.70;;;1.87;;
16153;SDS011;8182;55.648;13.208;2023-08-08T01:14:00;9.37;;;2.03;;
16153;SDS011;8182;55.648;13.208;2023-08-08T01:16:29;11.57;;;2.50;;
16153;SDS011;8182;55.648;13.208;2023-08-08T01:18:57;12.10;;;2.20;;
16153;SDS011;8182;55.648;13.208;2023-08-08T01:21:24;7.43;;;2.00;;
16153;SDS011;8182;55.648;13.208;2023-08-08T01:23:56;9.60;;;1.93;;
16153;SDS011;8182;55.648;13.208;2023-08-08T01:26:32;7.37;;;1.83;;
16153;SDS011;8182;55.648;13.208;2023-08-08T01:29:00;7.83;;;1.90;;
16153;SDS011;8182;55.648;13.208;2023-08-08T01:31:27;9.57;;;2.30;;
16153;SDS011;8182;55.648;13.208;2023-08-08T01:33:54;14.03;;;2.60;;
16153;SDS011;8182;55.648;13.208;2023-08-08T01:36:22;14.07;;;2.57;;
16153;SDS011;8182;55.648;13.208;2023-08-08T01:38:56;10.60;;;2.10;;
16153;SDS011;8182;55.648;13.208;2023-08-08T01:41:29;11.60;;;2.27;;
16153;SDS011;8182;55.648;13.208;2023-08-08T01:43:59;12.20;;;2.50;;
16153;SDS011;8182;55.648;13.208;2023-08-08T01:46:26;10.37;;;2.70;;
16153;SDS011;8182;55.648;13.208;2023-08-08T01:48:54;10.87;;;2.87;;
16153;SDS011;8182;55.648;13.208;2023-08-08T01:51:23;10.13;;;2.27;;
16153;SDS011;8182;55.648;13.208;2023-08-08T01:53:50;7.80;;;2.13;;
16153;SDS011;8182;55.648;13.208;2023-08-08T01:56:17;10.97;;;2.70;;
16153;SDS011;8182;55.648;13.208;2023-08-08T01:58:44;6.70;;;1.87;;
16153;SDS011;8182;55.648;13.208;2023-08-08T02:01:13;8.60;;;1.90;;
16153;SDS011;8182;55.648;13.208;2023-08-08T02:03:44;9.77;;;2.30;;
16153;SDS011;8182;55.648;13.208;2023-08-08T02:06:11;8.47;;;2.03;;
16153;SDS011;8182;55.648;13.208;2023-08-08T02:08:38;11.37;;;2.20;;
16153;SDS011;8182;55.648;13.208;2023-08-08T02:11:05;10.37;;;2.07;;
16153;SDS011;8182;55.648;13.208;2023-08-08T02:13:32;11.23;;;2.30;;
16153;SDS011;8182;55.648;13.208;2023-08-08T02:16:00;12.87;;;2.50;;
16153;SDS011;8182;55.648;13.208;2023-08-08T02:18:30;10.07;;;2.17;;
16153;SDS011;8182;55.648;13.208;2023-08-08T02:20:56;9.90;;;2.10;;
16153;SDS011;8182;55.648;13.208;2023-08-08T02:23:23;10.60;;;2.70;;
16153;SDS011;8182;55.648;13.208;2023-08-08T02:25:51;10.13;;;2.13;;
16153;SDS011;8182;55.648;13.208;2023-08-08T02:28:18;12.83;;;2.47;;
16153;SDS011;8182;55.648;13.208;2023-08-08T02:30:45;13.67;;;2.63;;
16153;SDS011;8182;55.648;13.208;2023-08-08T02:33:12;10.20;;;2.50;;
16153;SDS011;8182;55.648;13.208;2023-08-08T02:35:40;12.70;;;2.50;;
16153;SDS011;8182;55.648;13.208;2023-08-08T02:38:07;11.00;;;2.37;;
16153;SDS011;8182;55.648;13.208;2023-08-08T02:40:34;11.37;;;2.60;;
16153;SDS011;8182;55.648;13.208;2023-08-08T02:43:02;12.00;;;2.13;;
16153;SDS011;8182;55.648;13.208;2023-08-08T02:45:29;13.60;;;2.60;;
16153;SDS011;8182;55.648;13.208;2023-08-08T02:47:56;11.23;;;2.67;;
16153;SDS011;8182;55.648;13.208;2023-08-08T02:50:24;11.53;;;2.77;;
16153;SDS011;8182;55.648;13.208;2023-08-08T02:52:53;10.77;;;2.20;;
16153;SDS011;8182;55.648;13.208;2023-08-08T02:55:19;9.97;;;2.37;;
16153;SDS011;8182;55.648;13.208;2023-08-08T02:57:49;13.73;;;2.73;;
16153;SDS011;8182;55.648;13.208;2023-08-08T03:00:16;9.73;;;2.20;;
16153;SDS011;8182;55.648;13.208;2023-08-08T03:02:43;10.63;;;2.30;;
16153;SDS011;8182;55.648;13.208;2023-08-08T03:05:10;15.53;;;3.00;;
16153;SDS011;8182;55.648;13.208;2023-08-08T03:07:37;13.70;;;2.87;;
16153;SDS011;8182;55.648;13.208;2023-08-08T03:10:05;11.20;;;2.87;;
16153;SDS011;8182;55.648;13.208;2023-08-08T03:12:32;11.73;;;2.77;;
16153;SDS011;8182;55.648;13.208;2023-08-08T03:14:59;17.67;;;3.07;;
16153;SDS011;8182;55.648;13.208;2023-08-08T03:17:26;10.47;;;2.90;;
16153;SDS011;8182;55.648;13.208;2023-08-08T03:19:53;13.47;;;3.10;;
16153;SDS011;8182;55.648;13.208;2023-08-08T03:22:20;13.53;;;3.13;;
16153;SDS011;8182;55.648;13.208;2023-08-08T03:24:47;16.37;;;3.67;;
16153;SDS011;8182;55.648;13.208;2023-08-08T03:27:15;17.37;;;3.30;;
16153;SDS011;8182;55.648;13.208;2023-08-08T03:29:42;15.00;;;3.30;;
16153;SDS011;8182;55.648;13.208;2023-08-08T03:32:09;14.47;;;2.87;;
16153;SDS011;8182;55.648;13.208;2023-08-08T03:34:36;18.33;;;3.33;;
16153;SDS011;8182;55.648;13.208;2023-08-08T03:37:03;11.93;;;3.83;;
16153;SDS011;8182;55.648;13.208;2023-08-08T03:39:30;16.10;;;3.10;;
16153;SDS011;8182;55.648;13.208;2023-08-08T03:41:57;17.30;;;3.63;;
16153;SDS011;8182;55.648;13.208;2023-08-08T03:44:28;19.17;;;3.80;;
16153;SDS011;8182;55.648;13.208;2023-08-08T03:46:56;11.47;;;2.83;;
16153;SDS011;8182;55.648;13.208;2023-08-08T03:49:23;15.77;;;3.37;;
16153;SDS011;8182;55.648;13.208;2023-08-08T03:51:50;13.53;;;2.90;;
16153;SDS011;8182;55.648;13.208;2023-08-08T03:54:17;16.30;;;3.07;;
16153;SDS011;8182;55.648;13.208;2023-08-08T03:56:44;15.90;;;3.17;;
16153;SDS011;8182;55.648;13.208;2023-08-08T03:59:11;15.87;;;3.20;;
16153;SDS011;8182;55.648;13.208;2023-08-08T04:01:39;15.60;;;3.27;;
16153;SDS011;8182;55.648;13.208;2023-08-08T04:04:06;11.63;;;3.00;;
16153;SDS011;8182;55.648;13.208;2023-08-08T04:06:33;14.77;;;3.20;;
16153;SDS011;8182;55.648;13.208;2023-08-08T04:09:00;12.33;;;2.83;;
16153;SDS011;8182;55.648;13.208;2023-08-08T04:11:27;13.33;;;2.67;;
16153;SDS011;8182;55.648;13.208;2023-08-08T04:13:54;15.73;;;2.87;;
16153;SDS011;8182;55.648;13.208;2023-08-08T04:16:21;15.37;;;3.30;;
16153;SDS011;8182;55.648;13.208;2023-08-08T04:18:50;16.03;;;3.20;;
16153;SDS011;8182;55.648;13.208;2023-08-08T04:21:16;10.97;;;2.80;;
16153;SDS011;8182;55.648;13.208;2023-08-08T04:23:43;15.00;;;3.30;;
16153;SDS011;8182;55.648;13.208;2023-08-08T04:26:10;16.50;;;3.20;;
16153;SDS011;8182;55.648;13.208;2023-08-08T04:28:37;16.27;;;2.90;;
16153;SDS011;8182;55.648;13.208;2023-08-08T04:31:04;13.00;;;3.07;;
16153;SDS011;8182;55.648;13.208;2023-08-08T04:33:31;14.27;;;3.03;;
16153;SDS011;8182;55.648;13.208;2023-08-08T04:35:59;13.63;;;2.93;;
16153;SDS011;8182;55.648;13.208;2023-08-08T04:38:26;11.73;;;3.70;;
16153;SDS011;8182;55.648;13.208;2023-08-08T04:40:53;12.10;;;2.67;;
16153;SDS011;8182;55.648;13.208;2023-08-08T04:43:23;20.03;;;3.27;;
16153;SDS011;8182;55.648;13.208;2023-08-08T04:45:50;15.33;;;4.10;;
16153;SDS011;8182;55.648;13.208;2023-08-08T04:48:17;19.43;;;3.30;;
16153;SDS011;8182;55.648;13.208;2023-08-08T04:50:45;11.57;;;3.17;;
16153;SDS011;8182;55.648;13.208;2023-08-08T04:53:14;18.30;;;3.70;;
16153;SDS011;8182;55.648;13.208;2023-08-08T04:55:40;15.77;;;3.93;;
16153;SDS011;8182;55.648;13.208;2023-08-08T04:58:07;16.03;;;3.47;;
16153;SDS011;8182;55.648;13.208;2023-08-08T05:00:34;11.67;;;2.90;;
16153;SDS011;8182;55.648;13.208;2023-08-08T05:03:01;15.10;;;3.70;;
16153;SDS011;8182;55.648;13.208;2023-08-08T05:05:28;16.27;;;3.90;;
16153;SDS011;8182;55.648;13.208;2023-08-08T05:07:55;13.30;;;2.90;;
16153;SDS011;8182;55.648;13.208;2023-08-08T05:10:24;17.10;;;3.37;;
16153;SDS011;8182;55.648;13.208;2023-08-08T05:12:50;13.53;;;2.90;;
16153;SDS011;8182;55.648;13.208;2023-08-08T05:15:19;16.33;;;3.37;;
16153;SDS011;8182;55.648;13.208;2023-08-08T05:17:58;14.20;;;3.13;;
16153;SDS011;8182;55.648;13.208;2023-08-08T05:20:25;13.33;;;2.80;;
16153;SDS011;8182;55.648;13.208;2023-08-08T05:22:55;12.77;;;3.87;;
16153;SDS011;8182;55.648;13.208;2023-08-08T05:25:21;13.80;;;3.00;;
16153;SDS011;8182;55.648;13.208;2023-08-08T05:27:50;16.87;;;3.43;;
16153;SDS011;8182;55.648;13.208;2023-08-08T05:30:18;14.83;;;3.03;;
16153;SDS011;8182;55.648;13.208;2023-08-08T05:32:45;12.53;;;3.03;;
16153;SDS011;8182;55.648;13.208;2023-08-08T05:35:15;11.67;;;2.77;;
16153;SDS011;8182;55.648;13.208;2023-08-08T05:37:42;14.43;;;3.30;;
16153;SDS011;8182;55.648;13.208;2023-08-08T05:40:09;15.70;;;3.23;;
16153;SDS011;8182;55.648;13.208;2023-08-08T05:42:38;10.40;;;2.80;;
16153;SDS011;8182;55.648;13.208;2023-08-08T05:45:05;16.07;;;3.47;;
16153;SDS011;8182;55.648;13.208;2023-08-08T05:47:33;11.97;;;2.90;;
16153;SDS011;8182;55.648;13.208;2023-08-08T05:50:00;12.30;;;2.73;;
16153;SDS011;8182;55.648;13.208;2023-08-08T05:52:27;15.50;;;3.17;;
16153;SDS011;8182;55.648;13.208;2023-08-08T05:54:55;13.50;;;3.20;;
16153;SDS011;8182;55.648;13.208;2023-08-08T05:57:24;15.67;;;3.10;;
16153;SDS011;8182;55.648;13.208;2023-08-08T05:59:53;11.23;;;2.87;;
16153;SDS011;8182;55.648;13.208;2023-08-08T06:02:19;15.17;;;2.53;;
16153;SDS011;8182;55.648;13.208;2023-08-08T06:04:46;12.63;;;3.27;;
16153;SDS011;8182;55.648;13.208;2023-08-08T06:07:13;13.23;;;3.50;;
16153;SDS011;8182;55.648;13.208;2023-08-08T06:09:42;15.87;;;3.10;;
16153;SDS011;8182;55.648;13.208;2023-08-08T06:12:13;10.63;;;2.90;;
16153;SDS011;8182;55.648;13.208;2023-08-08T06:14:39;11.73;;;2.80;;
16153;SDS011;8182;55.648;13.208;2023-08-08T06:17:08;12.00;;;3.10;;
16153;SDS011;8182;55.648;13.208;2023-08-08T06:19:35;13.77;;;3.17;;
16153;SDS011;8182;55.648;13.208;2023-08-08T06:22:02;12.43;;;3.00;;
16153;SDS011;8182;55.648;13.208;2023-08-08T06:24:29;10.37;;;2.60;;
16153;SDS011;8182;55.648;13.208;2023-08-08T06:26:57;16.07;;;3.20;;
16153;SDS011;8182;55.648;13.208;2023-08-08T06:29:24;13.47;;;2.80;;
16153;SDS011;8182;55.648;13.208;2023-08-08T06:31:52;12.03;;;2.73;;
16153;SDS011;8182;55.648;13.208;2023-08-08T06:34:20;21.17;;;3.50;;
16153;SDS011;8182;55.648;13.208;2023-08-08T06:36:47;14.17;;;3.07;;
16153;SDS011;8182;55.648;13.208;2023-08-08T06:39:14;9.60;;;2.70;;
16153;SDS011;8182;55.648;13.208;2023-08-08T06:41:44;13.67;;;2.70;;
16153;SDS011;8182;55.648;13.208;2023-08-08T06:44:12;11.20;;;2.50;;
16153;SDS011;8182;55.648;13.208;2023-08-08T06:46:38;13.23;;;3.27;;
16153;SDS011;8182;55.648;13.208;2023-08-08T06:49:06;13.10;;;2.70;;
16153;SDS011;8182;55.648;13.208;2023-08-08T06:51:35;14.90;;;2.90;;
16153;SDS011;8182;55.648;13.208;2023-08-08T06:54:02;12.90;;;2.53;;
16153;SDS011;8182;55.648;13.208;2023-08-08T06:56:33;11.10;;;3.13;;
16153;SDS011;8182;55.648;13.208;2023-08-08T06:58:59;15.13;;;3.37;;
16153;SDS011;8182;55.648;13.208;2023-08-08T07:01:26;17.97;;;3.57;;
16153;SDS011;8182;55.648;13.208;2023-08-08T07:03:53;11.23;;;2.30;;
16153;SDS011;8182;55.648;13.208;2023-08-08T07:06:20;14.30;;;2.70;;
16153;SDS011;8182;55.648;13.208;2023-08-08T07:08:48;17.33;;;2.93;;
16153;SDS011;8182;55.648;13.208;2023-08-08T07:11:21;11.17;;;2.80;;
16153;SDS011;8182;55.648;13.208;2023-08-08T07:13:50;9.43;;;2.57;;
16153;SDS011;8182;55.648;13.208;2023-08-08T07:16:16;12.73;;;2.80;;
16153;SDS011;8182;55.648;13.208;2023-08-08T07:18:43;11.07;;;3.00;;
16153;SDS011;8182;55.648;13.208;2023-08-08T07:21:11;13.63;;;2.80;;
16153;SDS011;8182;55.648;13.208;2023-08-08T07:23:38;16.27;;;3.20;;
16153;SDS011;8182;55.648;13.208;2023-08-08T07:26:07;13.23;;;2.90;;
16153;SDS011;8182;55.648;13.208;2023-08-08T07:28:37;11.60;;;2.60;;
16153;SDS011;8182;55.648;13.208;2023-08-08T07:31:07;8.83;;;2.93;;
16153;SDS011;8182;55.648;13.208;2023-08-08T07:33:34;10.60;;;2.50;;
16153;SDS011;8182;55.648;13.208;2023-08-08T07:36:01;7.50;;;2.20;;
16153;SDS011;8182;55.648;13.208;2023-08-08T07:38:29;9.40;;;2.60;;
16153;SDS011;8182;55.648;13.208;2023-08-08T07:40:55;10.97;;;2.80;;
16153;SDS011;8182;55.648;13.208;2023-08-08T07:43:24;9.80;;;2.30;;
16153;SDS011;8182;55.648;13.208;2023-08-08T07:45:52;11.50;;;2.33;;
16153;SDS011;8182;55.648;13.208;2023-08-08T07:48:19;9.80;;;2.63;;
16153;SDS011;8182;55.648;13.208;2023-08-08T07:50:46;12.07;;;2.37;;
16153;SDS011;8182;55.648;13.208;2023-08-08T07:53:13;15.87;;;3.03;;
16153;SDS011;8182;55.648;13.208;2023-08-08T07:55:40;10.27;;;2.57;;
16153;SDS011;8182;55.648;13.208;2023-08-08T07:58:07;12.07;;;2.60;;
16153;SDS011;8182;55.648;13.208;2023-08-08T08:00:35;12.60;;;2.63;;
16153;SDS011;8182;55.648;13.208;2023-08-08T08:03:03;12.53;;;2.47;;
16153;SDS011;8182;55.648;13.208;2023-08-08T08:05:31;10.83;;;2.47;;
16153;SDS011;8182;55.648;13.208;2023-08-08T08:07:59;11.17;;;2.50;;
16153;SDS011;8182;55.648;13.208;2023-08-08T08:10:26;9.00;;;2.10;;
16153;SDS011;8182;55.648;13.208;2023-08-08T08:12:53;13.57;;;2.30;;
16153;SDS011;8182;55.648;13.208;2023-08-08T08:15:23;7.43;;;2.00;;
16153;SDS011;8182;55.648;13.208;2023-08-08T08:17:51;9.93;;;2.57;;
16153;SDS011;8182;55.648;13.208;2023-08-08T08:20:18;8.00;;;2.40;;
16153;SDS011;8182;55.648;13.208;2023-08-08T08:22:45;9.60;;;2.30;;
16153;SDS011;8182;55.648;13.208;2023-08-08T08:25:13;6.40;;;2.17;;
16153;SDS011;8182;55.648;13.208;2023-08-08T08:27:40;11.20;;;2.60;;
16153;SDS011;8182;55.648;13.208;2023-08-08T08:30:08;11.23;;;2.63;;
16153;SDS011;8182;55.648;13.208;2023-08-08T08:32:36;11.13;;;2.33;;
16153;SDS011;8182;55.648;13.208;2023-08-08T08:35:06;9.50;;;2.60;;
16153;SDS011;8182;55.648;13.208;2023-08-08T08:37:34;10.87;;;2.80;;
16153;SDS011;8182;55.648;13.208;2023-08-08T08:40:01;9.93;;;2.23;;
16153;SDS011;8182;55.648;13.208;2023-08-08T08:42:30;12.53;;;2.90;;
16153;SDS011;8182;55.648;13.208;2023-08-08T08:44:58;16.60;;;2.73;;
16153;SDS011;8182;55.648;13.208;2023-08-08T08:47:27;13.73;;;2.83;;
16153;SDS011;8182;55.648;13.208;2023-08-08T08:49:57;8.13;;;2.43;;
16153;SDS011;8182;55.648;13.208;2023-08-08T08:52:26;8.37;;;2.20;;
16153;SDS011;8182;55.648;13.208;2023-08-08T08:54:53;10.07;;;2.57;;
16153;SDS011;8182;55.648;13.208;2023-08-08T08:57:20;13.50;;;2.00;;
16153;SDS011;8182;55.648;13.208;2023-08-08T08:59:50;11.53;;;2.30;;
16153;SDS011;8182;55.648;13.208;2023-08-08T09:02:18;10.30;;;2.77;;
16153;SDS011;8182;55.648;13.208;2023-08-08T09:04:45;12.33;;;2.40;;
16153;SDS011;8182;55.648;13.208;2023-08-08T09:07:12;11.57;;;2.63;;
16153;SDS011;8182;55.648;13.208;2023-08-08T09:09:47;10.07;;;2.20;;
16153;SDS011;8182;55.648;13.208;2023-08-08T09:12:14;8.70;;;2.40;;
16153;SDS011;8182;55.648;13.208;2023-08-08T09:14:42;7.87;;;2.40;;
16153;SDS011;8182;55.648;13.208;2023-08-08T09:17:10;9.53;;;2.30;;
16153;SDS011;8182;55.648;13.208;2023-08-08T09:19:37;7.90;;;2.10;;
16153;SDS011;8182;55.648;13.208;2023-08-08T09:22:05;8.93;;;2.10;;
16153;SDS011;8182;55.648;13.208;2023-08-08T09:24:32;9.30;;;2.20;;
16153;SDS011;8182;55.648;13.208;2023-08-08T09:27:05;9.43;;;2.10;;
16153;SDS011;8182;55.648;13.208;2023-08-08T09:29:32;11.93;;;2.67;;
16153;SDS011;8182;55.648;13.208;2023-08-08T09:32:01;8.07;;;2.10;;
16153;SDS011;8182;55.648;13.208;2023-08-08T09:34:29;8.57;;;2.40;;
16153;SDS011;8182;55.648;13.208;2023-08-08T09:36:56;10.80;;;2.40;;
16153;SDS011;8182;55.648;13.208;2023-08-08T09:39:23;12.73;;;2.47;;
16153;SDS011;8182;55.648;13.208;2023-08-08T09:41:52;7.97;;;2.00;;
16153;SDS011;8182;55.648;13.208;2023-08-08T09:44:24;8.40;;;1.90;;
16153;SDS011;8182;55.648;13.208;2023-08-08T09:46:54;8.93;;;2.30;;
16153;SDS011;8182;55.648;13.208;2023-08-08T09:49:22;8.73;;;1.90;;
16153;SDS011;8182;55.648;13.208;2023-08-08T09:51:50;8.57;;;2.00;;
16153;SDS011;8182;55.648;13.208;2023-08-08T09:54:16;11.10;;;2.33;;
16153;SDS011;8182;55.648;13.208;2023-08-08T09:56:43;11.00;;;1.87;;
16153;SDS011;8182;55.648;13.208;2023-08-08T09:59:10;10.43;;;2.00;;
16153;SDS011;8182;55.648;13.208;2023-08-08T10:01:40;10.10;;;1.90;;
16153;SDS011;8182;55.648;13.208;2023-08-08T10:04:07;8.27;;;2.30;;
16153;SDS011;8182;55.648;13.208;2023-08-08T10:06:34;9.97;;;2.40;;
16153;SDS011;8182;55.648;13.208;2023-08-08T10:09:02;6.07;;;2.00;;
16153;SDS011;8182;55.648;13.208;2023-08-08T10:11:29;13.40;;;2.17;;
16153;SDS011;8182;55.648;13.208;2023-08-08T10:13:58;12.50;;;2.10;;
16153;SDS011;8182;55.648;13.208;2023-08-08T10:16:31;4.57;;;1.93;;
16153;SDS011;8182;55.648;13.208;2023-08-08T10:19:03;6.00;;;2.23;;
16153;SDS011;8182;55.648;13.208;2023-08-08T10:21:32;9.83;;;2.30;;
16153;SDS011;8182;55.648;13.208;2023-08-08T10:24:01;8.90;;;1.70;;
16153;SDS011;8182;55.648;13.208;2023-08-08T10:26:30;10.13;;;2.00;;
16153;SDS011;8182;55.648;13.208;2023-08-08T10:28:57;10.27;;;1.93;;
16153;SDS011;8182;55.648;13.208;2023-08-08T10:31:25;6.23;;;1.57;;
16153;SDS011;8182;55.648;13.208;2023-08-08T10:34:02;5.33;;;1.70;;
16153;SDS011;8182;55.648;13.208;2023-08-08T10:36:43;7.37;;;1.70;;
16153;SDS011;8182;55.648;13.208;2023-08-08T10:39:11;6.33;;;1.70;;
16153;SDS011;8182;55.648;13.208;2023-08-08T10:41:46;6.93;;;2.00;;
16153;SDS011;8182;55.648;13.208;2023-08-08T10:44:20;7.53;;;1.80;;
16153;SDS011;8182;55.648;13.208;2023-08-08T10:46:48;6.37;;;1.67;;
16153;SDS011;8182;55.648;13.208;2023-08-08T10:49:21;7.43;;;2.10;;
16153;SDS011;8182;55.648;13.208;2023-08-08T10:52:01;4.63;;;1.80;;
16153;SDS011;8182;55.648;13.208;2023-08-08T10:54:29;10.33;;;2.03;;
16153;SDS011;8182;55.648;13.208;2023-08-08T10:56:58;8.67;;;2.20;;
16153;SDS011;8182;55.648;13.208;2023-08-08T10:59:26;7.43;;;1.80;;
16153;SDS011;8182;55.648;13.208;2023-08-08T11:02:05;7.33;;;1.90;;
16153;SDS011;8182;55.648;13.208;2023-08-08T11:04:34;7.10;;;2.00;;
16153;SDS011;8182;55.648;13.208;2023-08-08T11:07:01;9.87;;;1.80;;
16153;SDS011;8182;55.648;13.208;2023-08-08T11:09:29;9.90;;;1.80;;
16153;SDS011;8182;55.648;13.208;2023-08-08T11:11:56;12.07;;;2.00;;
16153;SDS011;8182;55.648;13.208;2023-08-08T11:14:23;7.80;;;1.60;;
16153;SDS011;8182;55.648;13.208;2023-08-08T11:16:53;8.57;;;1.80;;
16153;SDS011;8182;55.648;13.208;2023-08-08T11:19:20;6.60;;;1.70;;
16153;SDS011;8182;55.648;13.208;2023-08-08T11:21:49;9.37;;;2.30;;
16153;SDS011;8182;55.648;13.208;2023-08-08T11:24:16;8.20;;;1.80;;
16153;SDS011;8182;55.648;13.208;2023-08-08T11:26:44;6.80;;;1.70;;
16153;SDS011;8182;55.648;13.208;2023-08-08T11:29:12;8.57;;;1.73;;
16153;SDS011;8182;55.648;13.208;2023-08-08T11:31:39;11.13;;;2.17;;
16153;SDS011;8182;55.648;13.208;2023-08-08T11:34:07;6.10;;;1.77;;
16153;SDS011;8182;55.648;13.208;2023-08-08T11:36:35;7.87;;;1.90;;
16153;SDS011;8182;55.648;13.208;2023-08-08T11:39:04;7.87;;;1.60;;
16153;SDS011;8182;55.648;13.208;2023-08-08T11:41:40;4.67;;;1.80;;
16153;SDS011;8182;55.648;13.208;2023-08-08T11:44:08;5.93;;;1.83;;
16153;SDS011;8182;55.648;13.208;2023-08-08T11:46:42;7.97;;;1.90;;
16153;SDS011;8182;55.648;13.208;2023-08-08T11:49:14;8.50;;;2.03;;
16153;SDS011;8182;55.648;13.208;2023-08-08T11:51:43;7.80;;;2.20;;
16153;SDS011;8182;55.648;13.208;2023-08-08T11:54:12;7.10;;;1.70;;
16153;SDS011;8182;55.648;13.208;2023-08-08T11:56:39;8.33;;;2.10;;
16153;SDS011;8182;55.648;13.208;2023-08-08T11:59:06;8.30;;;1.87;;
16153;SDS011;8182;55.648;13.208;2023-08-08T12:01:37;8.90;;;2.23;;
16153;SDS011;8182;55.648;13.208;2023-08-08T12:04:05;7.70;;;2.17;;
16153;SDS011;8182;55.648;13.208;2023-08-08T12:06:32;6.73;;;1.80;;
16153;SDS011;8182;55.648;13.208;2023-08-08T12:09:05;11.17;;;2.07;;
16153;SDS011;8182;55.648;13.208;2023-08-08T12:11:35;7.23;;;1.87;;
16153;SDS011;8182;55.648;13.208;2023-08-08T12:14:02;8.67;;;1.70;;
16153;SDS011;8182;55.648;13.208;2023-08-08T12:16:30;5.40;;;1.50;;
16153;SDS011;8182;55.648;13.208;2023-08-08T12:18:57;8.80;;;2.00;;
16153;SDS011;8182;55.648;13.208;2023-08-08T12:21:27;8.30;;;1.93;;
16153;SDS011;8182;55.648;13.208;2023-08-08T12:23:54;7.03;;;2.00;;
16153;SDS011;8182;55.648;13.208;2023-08-08T12:26:21;4.87;;;1.50;;
16153;SDS011;8182;55.648;13.208;2023-08-08T12:28:49;12.53;;;2.07;;
16153;SDS011;8182;55.648;13.208;2023-08-08T12:31:19;9.70;;;2.17;;
16153;SDS011;8182;55.648;13.208;2023-08-08T12:33:46;8.87;;;1.93;;
16153;SDS011;8182;55.648;13.208;2023-08-08T12:36:13;6.03;;;1.97;;
16153;SDS011;8182;55.648;13.208;2023-08-08T12:38:41;5.30;;;1.83;;
16153;SDS011;8182;55.648;13.208;2023-08-08T12:41:15;8.33;;;1.80;;
16153;SDS011;8182;55.648;13.208;2023-08-08T12:43:42;8.30;;;1.70;;
16153;SDS011;8182;55.648;13.208;2023-08-08T12:46:11;5.33;;;1.87;;
16153;SDS011;8182;55.648;13.208;2023-08-08T12:48:43;9.20;;;1.90;;
16153;SDS011;8182;55.648;13.208;2023-08-08T12:51:14;7.53;;;1.80;;
16153;SDS011;8182;55.648;13.208;2023-08-08T12:53:42;7.23;;;1.77;;
16153;SDS011;8182;55.648;13.208;2023-08-08T12:56:10;6.80;;;1.70;;
16153;SDS011;8182;55.648;13.208;2023-08-08T12:58:38;4.23;;;1.87;;
16153;SDS011;8182;55.648;13.208;2023-08-08T13:01:05;8.57;;;1.80;;
16153;SDS011;8182;55.648;13.208;2023-08-08T13:03:35;6.90;;;1.90;;
16153;SDS011;8182;55.648;13.208;2023-08-08T13:06:02;4.27;;;1.60;;
16153;SDS011;8182;55.648;13.208;2023-08-08T13:08:29;7.03;;;1.63;;
16153;SDS011;8182;55.648;13.208;2023-08-08T13:10:57;8.70;;;1.50;;
16153;SDS011;8182;55.648;13.208;2023-08-08T13:13:24;6.43;;;1.60;;
16153;SDS011;8182;55.648;13.208;2023-08-08T13:15:51;5.47;;;1.37;;
16153;SDS011;8182;55.648;13.208;2023-08-08T13:18:18;4.77;;;1.40;;
16153;SDS011;8182;55.648;13.208;2023-08-08T13:20:46;5.07;;;1.60;;
16153;SDS011;8182;55.648;13.208;2023-08-08T13:23:13;5.70;;;1.80;;
16153;SDS011;8182;55.648;13.208;2023-08-08T13:25:40;8.23;;;1.80;;
16153;SDS011;8182;55.648;13.208;2023-08-08T13:28:07;7.33;;;1.80;;
16153;SDS011;8182;55.648;13.208;2023-08-08T13:30:35;4.63;;;1.50;;
16153;SDS011;8182;55.648;13.208;2023-08-08T13:33:02;6.60;;;1.73;;
16153;SDS011;8182;55.648;13.208;2023-08-08T13:35:30;7.27;;;1.60;;
16153;SDS011;8182;55.648;13.208;2023-08-08T13:37:59;7.83;;;1.40;;
16153;SDS011;8182;55.648;13.208;2023-08-08T13:40:26;4.57;;;1.10;;
16153;SDS011;8182;55.648;13.208;2023-08-08T13:42:53;4.27;;;1.37;;
16153;SDS011;8182;55.648;13.208;2023-08-08T13:45:20;5.60;;;1.57;;
16153;SDS011;8182;55.648;13.208;2023-08-08T13:47:48;6.83;;;1.50;;
16153;SDS011;8182;55.648;13.208;2023-08-08T13:50:15;8.00;;;1.43;;
16153;SDS011;8182;55.648;13.208;2023-08-08T13:52:42;5.97;;;1.50;;
16153;SDS011;8182;55.648;13.208;2023-08-08T13:55:10;10.33;;;1.67;;
16153;SDS011;8182;55.648;13.208;2023-08-08T13:57:38;6.40;;;1.40;;
16153;SDS011;8182;55.648;13.208;2023-08-08T14:00:05;8.10;;;1.60;;
16153;SDS011;8182;55.648;13.208;2023-08-08T14:02:36;7.43;;;1.80;;
16153;SDS011;8182;55.648;13.208;2023-08-08T14:05:03;7.07;;;1.50;;
16153;SDS011;8182;55.648;13.208;2023-08-08T14:07:31;5.63;;;1.20;;
16153;SDS011;8182;55.648;13.208;2023-08-08T14:09:58;5.67;;;1.20;;
16153;SDS011;8182;55.648;13.208;2023-08-08T14:12:26;3.57;;;1.10;;
16153;SDS011;8182;55.648;13.208;2023-08-08T14:14:53;4.57;;;1.20;;
16153;SDS011;8182;55.648;13.208;2023-08-08T14:17:21;4.13;;;1.20;;
16153;SDS011;8182;55.648;13.208;2023-08-08T14:19:48;4.07;;;1.30;;
16153;SDS011;8182;55.648;13.208;2023-08-08T14:22:14;7.70;;;1.20;;
16153;SDS011;8182;55.648;13.208;2023-08-08T14:24:41;4.50;;;1.40;;
16153;SDS011;8182;55.648;13.208;2023-08-08T14:27:09;5.70;;;1.30;;
16153;SDS011;8182;55.648;13.208;2023-08-08T14:29:37;3.97;;;1.37;;
16153;SDS011;8182;55.648;13.208;2023-08-08T14:32:04;7.00;;;1.60;;
16153;SDS011;8182;55.648;13.208;2023-08-08T14:34:32;6.50;;;1.20;;
16153;SDS011;8182;55.648;13.208;2023-08-08T14:37:00;5.20;;;1.23;;
16153;SDS011;8182;55.648;13.208;2023-08-08T14:39:27;6.23;;;1.60;;
16153;SDS011;8182;55.648;13.208;2023-08-08T14:41:54;7.93;;;1.33;;
16153;SDS011;8182;55.648;13.208;2023-08-08T14:44:21;8.13;;;1.87;;
16153;SDS011;8182;55.648;13.208;2023-08-08T14:46:50;5.87;;;1.50;;